Orinda, CA (94563)

10:29 AM PST on February 11, 2016 (GMT -0800)
Hills near Del Rey | | Change Station
CLOSE
Current Station
Personal Weather Station
Location: Orinda, CA
Elevation: 725 ft
Nearby Weather Stations

Elev 725 ft 37.85 °N, 122.15 °W | Updated 11 seconds ago

Partly Cloudy
Partly Cloudy
64.6 °F
Feels Like 64.6 °F
N
0.0
Wind Variable Wind from NNW
Gusts 1.0 mph

Today
High -- | Low -- °F
--% Chance of Precip.
Yesterday
High -- | Low -- °F
Precip. -- in
Pressure 30.14 in
Visibility 10.0 miles
Clouds Clear
Dew Point 50 °F
Humidity 59%
Rainfall 0.00 in
Snow Depth Not available.
7:03 AM 5:42 PM
Waxing Crescent, 13% visible
METAR KCCR 111753Z 34003KT 10SM CLR 14/08 A3018 RMK AO2 SLP204 T01440083 10144 20078 52006
Pressure 30.14 in
Visibility 10.0 miles
Clouds Clear
Dew Point 50 °F
Humidity 59%
Rainfall 0.00 in
Snow Depth Not available.
7:03 AM 5:42 PM
Waxing Crescent, 13% visible
METAR KCCR 111753Z 34003KT 10SM CLR 14/08 A3018 RMK AO2 SLP204 T01440083 10144 20078 52006

10-Day Weather Forecast

Almanac

Astronomy

Feb. 11, 2016 Rise Set
Actual Time
Civil Twilight
Nautical Twilight
Astronomical Twilight
Moon
Length of Visible Light
Length of Day
Tomorrow will be .
, % of the Moon is Illuminated

Today's Extremes

State Highs State Lows

Community

WunderPhotos

Upload Photos

1,892,122 photos uploaded!

WunderBlog® & News

Nearby

Air Quality

  Air Quality AQ Index Pollutant
Not available.

Snow Depth

Station Depth Elevation

Earthquake Activity

City Distance Mag. Time & Date
Minimum magnitude displayed is 2.5.

Coastal Water Temperatures

Place Temperature

Stations

Nearby Weather Stations

Station Location Temp. Windchill Dew Point Humidity Wind Precip. Elev Updated Type
                   

Watches & Warnings

There are currently no watches in effect.